默认 日期 大小 文件数 浏览量 最新下载 xml
the opus磁力链接相关资源由用户搜索指令自动获取,结果来源于网络,本站不存储任何资料,亦不承担任何责任,请于24小时内删除,搜索到2625个磁力,用时68ms。
    ... , "S01E07 Duel of the Droids.mkv": 322505132, "S01E12 The Gungan General.mkv ... Thousand Moons.mkv": 317324998, "S01E10 The Lair of General Grievous.mkv ...
创建时间: 2022-10-08 22:58:15 大小:6.9 GB 文件数量:22 热度:5 最近下载:2025-01-26 21:50:09
    {"[Hakata Ramen] House of the Dragon S01E07.ske": 1152, "[HR] House of the Dragon S01E07 [70235076].mkv": 707429192}
创建时间: 2022-10-08 23:16:56 大小:674.66 MB 文件数量:2 热度:3 最近下载:2025-01-19 04:16:06
    {"tsp.NFO": 21533, "The Power of the Dog 2021 1080p NF WEB-DL OPUS 5.1 H265-TSP.mkv": 2806674657}
创建时间: 2022-10-09 21:46:01 大小:2.61 GB 文件数量:2 热度:5 最近下载:2025-02-19 02:45:02
    {"[Hakata Ramen] The Greatest Beer Run Ever (2022).ske": 1598, "[HR] The Greatest Beer Run Ever (2022) [19998A66].mkv": 2470472480}
创建时间: 2022-10-10 06:37:00 大小:2.3 GB 文件数量:2 热度:4 最近下载:2025-01-07 09:57:02
    ... - ¥€$.mkv": 446596719, "Ghost in the Shell Stand Alone Complex (1995 ... mkv": 407957210, "Ghost in the Shell Stand Alone Complex (1995 ... ": 429241421, "Ghost in the Shell Stand Alone Complex (1995 ... 1995) - S02E23 - IN The Day the Bridge Falls; MARTIAL LAW.mkv ...
创建时间: 2022-10-10 06:58:00 大小:22.58 GB 文件数量:66 热度:13 最近下载:2025-01-02 12:10:11
    {"[Hakata Ramen] House of the Dragon S01E08.ske": 1178, "[HR] House of the Dragon S01E08 [5927FEB2].mkv": 758857139}
创建时间: 2022-10-11 00:01:27 大小:723.7 MB 文件数量:2 热度:9 最近下载:2025-04-22 05:55:01
    {"TSP.NFO": 6750, "The.Matrix.Resurrections.2021.1080p.HMAX.WEB-DL.HDR10.OPUS.5.1.H265-TSP.mkv": 3145080160}
创建时间: 2022-10-11 07:56:59 大小:2.93 GB 文件数量:2 热度:3 最近下载:2025-01-26 14:54:03
    {"[Hakata Ramen] The Walking Dead S01E18.ske": 733, "[HR] The Walking Dead S11E18 [9EA9FB8F].mkv": 1597199329}
创建时间: 2022-10-12 15:27:25 大小:1.49 GB 文件数量:2 热度:2 最近下载:2025-01-03 07:13:01
    {"files": {"vlk.sh": 1384, "logo.txt.gz": 1852, "groot.dwarfs": 364292337}, "start.w.sh": 1363, "settings.sh": 1613}
创建时间: 2022-10-12 21:23:06 大小:347.42 MB 文件数量:5 热度:2 最近下载:2025-02-09 08:48:04
    ... lost my mind.opus": 2845593, "The Platters - The great pretender.opus": 2892048, "Hugo Winterhalter ... Turner - Lavender blue.opus": 2511727, "The Browns - The three bells.opus": 3078760, "Della Reese ...
创建时间: 2022-10-12 23:30:55 大小:247.72 MB 文件数量:94 热度:11 最近下载:2025-02-04 05:50:07
    {"[Hakata Ramen] House of the Dragon S01E06.ske": 1209, "[HR] House of the Dragon S01E06 [16607FE6].mkv": 840387103}
创建时间: 2022-10-13 19:18:03 大小:801.46 MB 文件数量:2 热度:4 最近下载:2025-05-04 20:49:04
    ... "Marc Hartman - The end.opus": 5561298, "Marc Hartman - Whistle.opus": 4851065, "Marc ... me tonight.opus": 4720449, "Marc Hartman - The Sun goes down.opus": 4146640, "The 5th ... 140003, "Marc Hartman - Bright like the night.opus": 4996544, "Marc Hartman - Don ...
创建时间: 2022-10-16 05:34:07 大小:80.1 MB 文件数量:20 热度:2 最近下载:2025-01-03 07:13:10
    ... .opus": 3590824, "Appleton - Everything eventually.opus": 3409882, "Busted - Sleeping with the light on.opus ... .opus": 3391169, "Scooter - The night.opus": 3516991, "Double Dee - Shining.opus": 3415050, "Tomcraft - Loneliness.opus ...
创建时间: 2022-10-16 15:41:55 大小:181.65 MB 文件数量:59 热度:2 最近下载:2025-01-06 23:28:09
    ... the Rain.mkv": 54518211, "The Asterisk War S01E04-(Creditless Epilogue) Waiting for the the ... rain.mkv": 22416176}, "The Asterisk War S01E04-Unshackled ...
创建时间: 2022-10-16 22:48:28 大小:19.2 GB 文件数量:34 热度:12 最近下载:2025-09-19 16:48:02
    ... Evil Plans.mkv": 371294847, "S03E06 The Academy.mkv": 302431791, "S03E01 Clone ... .mkv": 263792253, "S03E14 Witches of the Mist.mkv": 333505677, "S03E10 Heroes ...
创建时间: 2022-10-17 17:56:17 大小:6.51 GB 文件数量:22 热度:4 最近下载:2025-02-20 06:25:01
    {"[Hakata Ramen] House of the Dragon S01E09.ske": 1178, "[HR] House of the Dragon S01E09 [44B04C73].mkv": 660796197}
创建时间: 2022-10-17 22:00:38 大小:630.19 MB 文件数量:2 热度:21 最近下载:2025-03-28 16:49:01
    {"NFO & Guide": {"RAV1NE.nfo": 2680, "How to Play AV1.txt": 1245}, "The.Adventures.of.Tintin.2011.1080p.BluRay.AV1.Opus.7.1.MULTiSUB-RAV1NE.mkv": 1883817253}
创建时间: 2022-10-18 22:30:57 大小:1.75 GB 文件数量:3 热度:10 最近下载:2025-02-07 05:31:03
    {"[Hakata Ramen] The Walking Dead S01E19.ske": 752, "[HR] The Walking Dead S11E19 [39B5E689].mkv": 1241349417}
创建时间: 2022-10-19 06:10:04 大小:1.16 GB 文件数量:2 热度:2 最近下载:2025-01-03 01:14:01
    {"tsp.NFO": 9245, "A.Million.Ways.To.Die.In.The.West.2014.Unrated.1080p.BluRay.OPUS.5.1.H265-TSP.mkv": 3397233178}
创建时间: 2022-10-21 15:47:00 大小:3.16 GB 文件数量:2 热度:2 最近下载:2025-02-16 12:50:01
    {".pad": {"959514": 959514}, "[Hakata Ramen] The Walking Dead S01E20.ske": 718, "[HR] The Walking Dead S11E20 [E4A84835].mkv": 1001479142}
创建时间: 2022-10-21 21:30:13 大小:956 MB 文件数量:3 热度:3 最近下载:2025-01-04 15:22:16